createdAt,value
2018-09-12T00:00:06.576Z,24.40
2018-09-12T00:02:36.336Z,24.40
2018-09-12T00:05:06.402Z,24.40
2018-09-12T00:07:35.962Z,24.40
2018-09-12T00:10:05.841Z,24.30
2018-09-12T00:12:35.458Z,24.30
2018-09-12T00:15:05.047Z,24.20
2018-09-12T00:17:34.510Z,24.20
2018-09-12T00:20:04.148Z,24.20
2018-09-12T00:22:33.663Z,24.20
2018-09-12T00:25:03.271Z,24.10
2018-09-12T00:27:32.796Z,24.10
2018-09-12T00:30:02.315Z,24.10
2018-09-12T00:32:31.819Z,24.00
2018-09-12T00:35:01.292Z,24.00
2018-09-12T00:37:30.791Z,24.10
2018-09-12T00:40:00.337Z,24.00
2018-09-12T00:42:29.806Z,24.00
2018-09-12T00:44:59.660Z,24.00
2018-09-12T00:47:29.215Z,23.90
2018-09-12T00:49:58.822Z,23.90
2018-09-12T00:52:28.336Z,23.90
2018-09-12T00:54:57.902Z,23.90
2018-09-12T00:57:27.383Z,23.90
2018-09-12T00:59:56.865Z,23.80
2018-09-12T01:02:26.351Z,23.80
2018-09-12T01:04:55.837Z,23.80
2018-09-12T01:07:25.389Z,23.80
2018-09-12T01:09:54.883Z,23.80
2018-09-12T01:12:24.356Z,23.80
2018-09-12T01:14:53.828Z,23.80
2018-09-12T01:17:23.359Z,23.80
2018-09-12T01:19:52.871Z,23.70
2018-09-12T01:22:22.366Z,23.70
2018-09-12T01:24:51.917Z,23.70
2018-09-12T01:27:21.444Z,23.70
2018-09-12T01:29:50.974Z,23.70
2018-09-12T01:32:20.456Z,23.70
2018-09-12T01:34:49.960Z,23.70
2018-09-12T01:37:19.483Z,23.70
2018-09-12T01:39:48.991Z,23.70
2018-09-12T01:42:18.451Z,23.60
2018-09-12T01:44:47.948Z,23.60
2018-09-12T01:47:17.450Z,23.50
2018-09-12T01:49:47.008Z,23.50
2018-09-12T01:52:16.479Z,23.50
2018-09-12T01:54:45.983Z,23.40
2018-09-12T01:57:15.523Z,23.40
2018-09-12T01:59:44.999Z,23.50
2018-09-12T02:02:14.528Z,23.50
2018-09-12T02:04:44.023Z,23.50
2018-09-12T02:07:13.532Z,23.50
2018-09-12T02:09:43.047Z,23.50
2018-09-12T02:12:12.515Z,23.50
2018-09-12T02:14:42.016Z,23.50
2018-09-12T02:17:11.519Z,23.50
2018-09-12T02:19:41.036Z,23.50
2018-09-12T02:22:10.543Z,23.50
2018-09-12T02:24:40.208Z,23.50
2018-09-12T02:27:13.034Z,23.50
2018-09-12T02:29:42.527Z,23.50
2018-09-12T02:32:12.030Z,23.50
2018-09-12T02:34:41.511Z,23.50
2018-09-12T02:37:10.967Z,23.60
2018-09-12T02:39:40.467Z,23.60
2018-09-12T02:42:09.989Z,23.60
2018-09-12T02:44:39.463Z,23.60
2018-09-12T02:47:13.171Z,23.60
2018-09-12T02:49:42.695Z,23.70
2018-09-12T02:52:12.168Z,23.60
2018-09-12T02:54:41.679Z,23.70
2018-09-12T02:57:11.231Z,23.70
2018-09-12T02:59:40.731Z,23.70
2018-09-12T03:02:10.464Z,23.70
2018-09-12T03:04:40.090Z,23.70
2018-09-12T03:07:09.565Z,23.70
2018-09-12T03:09:39.081Z,23.70
2018-09-12T03:12:08.612Z,23.70
2018-09-12T03:14:38.120Z,23.60
2018-09-12T03:17:07.635Z,23.60
2018-09-12T03:19:37.107Z,23.60
2018-09-12T03:22:06.725Z,23.60
2018-09-12T03:24:36.567Z,23.50
2018-09-12T03:27:06.095Z,23.50
2018-09-12T03:29:35.627Z,23.50
2018-09-12T03:32:05.147Z,23.40
2018-09-12T03:34:34.739Z,23.40
2018-09-12T03:37:04.227Z,23.40
2018-09-12T03:39:33.707Z,23.30
2018-09-12T03:42:03.172Z,23.30
2018-09-12T03:44:32.708Z,23.30
2018-09-12T03:47:02.188Z,23.30
2018-09-12T03:49:31.675Z,23.30
2018-09-12T03:52:01.211Z,23.30
2018-09-12T03:54:30.722Z,23.30
2018-09-12T03:57:00.215Z,23.30
2018-09-12T03:59:29.767Z,23.40
2018-09-12T04:01:59.283Z,23.30
2018-09-12T04:04:28.798Z,23.30
2018-09-12T04:06:58.289Z,23.30
2018-09-12T04:09:27.764Z,23.30
2018-09-12T04:11:57.550Z,23.30
2018-09-12T04:14:27.200Z,23.30
2018-09-12T04:16:57.789Z,23.30
2018-09-12T04:19:27.703Z,23.30
2018-09-12T04:21:57.332Z,23.30
2018-09-12T04:24:26.870Z,23.30
2018-09-12T04:26:56.759Z,23.30
2018-09-12T04:29:26.505Z,23.30
2018-09-12T04:31:55.988Z,23.30
2018-09-12T04:34:25.496Z,23.40
2018-09-12T04:36:55.036Z,23.40
2018-09-12T04:39:24.561Z,23.40
2018-09-12T04:41:54.056Z,23.40
2018-09-12T04:44:23.541Z,23.40
2018-09-12T04:46:53.143Z,23.50
2018-09-12T04:49:23.198Z,23.50
2018-09-12T04:51:52.712Z,23.50
2018-09-12T04:54:22.232Z,23.50
2018-09-12T04:56:52.047Z,23.50
2018-09-12T04:59:21.741Z,23.60
2018-09-12T05:01:51.340Z,23.60
2018-09-12T05:04:20.849Z,23.60
2018-09-12T05:06:50.555Z,23.60
2018-09-12T05:09:20.101Z,23.60
2018-09-12T05:11:49.579Z,23.60
2018-09-12T05:14:19.619Z,23.60
2018-09-12T05:16:49.088Z,23.70
2018-09-12T05:19:18.611Z,23.70
2018-09-12T05:21:48.087Z,23.80
2018-09-12T05:24:17.682Z,23.90
2018-09-12T05:26:47.746Z,24.10
2018-09-12T05:29:17.267Z,24.20
2018-09-12T05:31:47.000Z,24.30
2018-09-12T05:34:16.915Z,24.40
2018-09-12T05:36:47.396Z,24.50
2018-09-12T05:39:16.903Z,24.60
2018-09-12T05:41:46.407Z,24.80
2018-09-12T05:44:16.094Z,24.90
2018-09-12T05:46:45.675Z,25.00
2018-09-12T05:49:15.234Z,25.00
2018-09-12T05:51:44.711Z,25.00
2018-09-12T05:54:14.180Z,24.90
2018-09-12T05:56:43.692Z,25.00
2018-09-12T05:59:13.174Z,25.10
2018-09-12T06:01:42.676Z,25.10
2018-09-12T06:04:12.277Z,25.30
2018-09-12T06:06:41.814Z,25.30
2018-09-12T06:09:11.655Z,25.40
2018-09-12T06:11:41.171Z,25.50
2018-09-12T06:14:10.734Z,25.60
2018-09-12T06:16:40.336Z,25.70
2018-09-12T06:19:09.874Z,25.70
2018-09-12T06:21:39.371Z,25.80
2018-09-12T06:24:09.194Z,25.90
2018-09-12T06:26:38.735Z,26.00
2018-09-12T06:29:08.628Z,26.10
2018-09-12T06:31:38.135Z,26.20
2018-09-12T06:34:07.742Z,26.30
2018-09-12T06:36:37.292Z,26.40
2018-09-12T06:39:09.936Z,26.50
2018-09-12T06:41:39.702Z,26.60
2018-09-12T06:44:09.446Z,26.60
2018-09-12T06:46:39.180Z,26.60
2018-09-12T06:49:09.199Z,26.70
2018-09-12T06:51:38.715Z,26.80
2018-09-12T06:54:08.391Z,26.80
2018-09-12T06:56:37.999Z,26.90
2018-09-12T06:59:07.560Z,27.00
2018-09-12T07:01:37.083Z,27.00
2018-09-12T07:04:06.932Z,27.20
2018-09-12T07:06:37.528Z,27.30
2018-09-12T07:09:09.331Z,27.40
2018-09-12T07:11:38.986Z,27.50
2018-09-12T07:14:08.629Z,27.60
2018-09-12T07:16:38.191Z,27.80
2018-09-12T07:19:07.795Z,27.90
2018-09-12T07:21:37.983Z,28.10
2018-09-12T07:24:08.234Z,28.10
2018-09-12T07:26:37.834Z,28.10
2018-09-12T07:29:08.031Z,28.10
2018-09-12T07:31:44.046Z,28.20
2018-09-12T07:34:13.651Z,28.30
2018-09-12T07:36:43.172Z,28.40
2018-09-12T07:39:13.984Z,28.40
2018-09-12T07:41:44.600Z,28.40
2018-09-12T07:44:14.055Z,28.50
2018-09-12T07:46:43.714Z,28.60
2018-09-12T07:49:13.251Z,28.60
2018-09-12T07:51:42.801Z,28.70
2018-09-12T07:54:12.492Z,28.80
2018-09-12T07:56:44.283Z,28.80
2018-09-12T07:59:13.890Z,28.90
2018-09-12T08:01:43.403Z,28.90
2018-09-12T08:04:12.905Z,29.00
2018-09-12T08:06:42.542Z,29.00
2018-09-12T08:09:13.328Z,29.10
2018-09-12T08:11:43.460Z,29.10
2018-09-12T08:14:13.009Z,29.20
2018-09-12T08:16:42.509Z,29.30
2018-09-12T08:19:12.416Z,29.40
2018-09-12T08:21:41.960Z,29.50
2018-09-12T08:24:11.473Z,29.50
2018-09-12T08:26:41.074Z,29.50
2018-09-12T08:29:10.928Z,29.50
2018-09-12T08:31:40.512Z,29.50
2018-09-12T08:34:10.053Z,29.60
2018-09-12T08:36:39.646Z,29.60
2018-09-12T08:39:10.073Z,29.70
2018-09-12T08:41:40.145Z,29.70
2018-09-12T08:44:10.408Z,29.80
2018-09-12T08:46:40.929Z,29.90
2018-09-12T08:49:10.992Z,30.00
2018-09-12T08:51:41.768Z,30.10
2018-09-12T08:54:11.550Z,30.10
2018-09-12T08:56:41.189Z,30.20
2018-09-12T08:59:11.234Z,30.30
2018-09-12T09:01:42.014Z,30.30
2018-09-12T09:04:13.364Z,30.30
2018-09-12T09:06:45.631Z,30.30
2018-09-12T09:09:15.806Z,30.20
2018-09-12T09:11:45.558Z,30.10
2018-09-12T09:14:15.916Z,30.10
2018-09-12T09:16:46.265Z,30.10
2018-09-12T09:19:16.383Z,30.10
2018-09-12T09:21:47.220Z,30.20
2018-09-12T09:24:17.683Z,30.20
2018-09-12T09:26:48.249Z,30.20
2018-09-12T09:29:19.059Z,30.10
2018-09-12T09:31:49.172Z,30.10
2018-09-12T09:34:18.825Z,30.10
2018-09-12T09:36:49.099Z,30.10
2018-09-12T09:39:18.967Z,30.20
2018-09-12T09:41:49.044Z,30.30
2018-09-12T09:44:20.648Z,30.40
2018-09-12T09:46:50.824Z,30.40
2018-09-12T09:49:20.824Z,30.50
2018-09-12T09:51:51.357Z,30.50
2018-09-12T09:54:22.159Z,30.60
2018-09-12T09:56:51.998Z,30.60
2018-09-12T09:59:21.648Z,30.60
2018-09-12T10:01:57.540Z,30.60
2018-09-12T10:04:32.909Z,30.60
2018-09-12T10:07:08.040Z,30.60
2018-09-12T10:09:41.008Z,30.60
2018-09-12T10:12:11.287Z,30.70
2018-09-12T10:14:41.377Z,30.70
2018-09-12T10:17:11.369Z,30.80
2018-09-12T10:19:42.486Z,30.80
2018-09-12T10:22:13.017Z,30.80
2018-09-12T10:24:42.938Z,30.70
2018-09-12T10:27:16.448Z,30.70
2018-09-12T10:29:46.404Z,30.70
2018-09-12T10:32:16.321Z,30.80
2018-09-12T10:34:46.270Z,30.80
2018-09-12T10:37:17.427Z,30.80
2018-09-12T10:39:47.762Z,30.80
2018-09-12T10:42:18.119Z,30.90
2018-09-12T10:44:48.011Z,30.90
2018-09-12T10:47:17.615Z,30.90
2018-09-12T10:49:48.991Z,30.90
2018-09-12T10:52:18.975Z,30.80
2018-09-12T10:54:49.587Z,30.80
2018-09-12T10:57:19.424Z,30.70
2018-09-12T10:59:50.955Z,30.70
2018-09-12T11:02:21.484Z,30.70
2018-09-12T11:04:51.575Z,30.70
2018-09-12T11:07:21.265Z,30.80
2018-09-12T11:09:51.861Z,30.80
2018-09-12T11:12:22.684Z,30.80
2018-09-12T11:14:52.579Z,30.80
2018-09-12T11:17:22.258Z,30.80
2018-09-12T11:19:54.064Z,30.90
2018-09-12T11:22:23.995Z,30.90
2018-09-12T11:24:54.508Z,30.90
2018-09-12T11:27:24.540Z,30.90
2018-09-12T11:29:54.180Z,30.90
2018-09-12T11:32:24.875Z,30.90
2018-09-12T11:34:55.559Z,31.00
2018-09-12T11:37:26.134Z,31.10
2018-09-12T11:39:56.464Z,31.10
2018-09-12T11:42:27.754Z,31.10
2018-09-12T11:44:58.047Z,31.10
2018-09-12T11:47:28.502Z,31.10
2018-09-12T11:50:02.323Z,31.10
2018-09-12T11:52:33.347Z,31.10
2018-09-12T11:55:03.768Z,31.20
2018-09-12T11:57:33.563Z,31.20
2018-09-12T12:00:03.347Z,31.20
2018-09-12T12:02:33.237Z,31.20
2018-09-12T12:05:03.758Z,31.30
2018-09-12T12:07:34.935Z,31.30
2018-09-12T12:10:04.883Z,31.30
2018-09-12T12:12:35.105Z,31.40
2018-09-12T12:15:05.717Z,31.50
2018-09-12T12:17:36.474Z,31.50
2018-09-12T12:20:06.631Z,31.60
2018-09-12T12:22:36.689Z,31.60
2018-09-12T12:25:06.923Z,31.70
2018-09-12T12:27:39.407Z,31.80
2018-09-12T12:30:09.756Z,31.90
2018-09-12T12:32:39.973Z,32.00
2018-09-12T12:35:10.560Z,32.10
2018-09-12T12:37:40.378Z,32.20
2018-09-12T12:40:10.332Z,32.30
2018-09-12T12:42:40.560Z,32.40
2018-09-12T12:45:12.547Z,32.40
2018-09-12T12:47:42.228Z,32.50
2018-09-12T12:50:12.347Z,32.50
2018-09-12T12:52:42.032Z,32.60
2018-09-12T12:55:12.136Z,32.70
2018-09-12T12:57:42.471Z,32.70
2018-09-12T13:00:12.800Z,32.90
2018-09-12T13:02:42.885Z,32.90
2018-09-12T13:05:13.328Z,33.00
2018-09-12T13:07:43.024Z,33.00
2018-09-12T13:10:12.997Z,33.10
2018-09-12T13:12:43.140Z,33.20
2018-09-12T13:15:13.391Z,33.30
2018-09-12T13:17:43.272Z,33.50
2018-09-12T13:20:12.876Z,33.70
2018-09-12T13:22:42.473Z,33.70
2018-09-12T13:25:12.655Z,33.80
2018-09-12T13:27:43.137Z,33.80
2018-09-12T13:30:13.269Z,33.80
2018-09-12T13:32:43.543Z,33.70
2018-09-12T13:35:14.404Z,33.70
2018-09-12T13:37:44.259Z,33.80
2018-09-12T13:40:15.151Z,33.90
2018-09-12T13:42:46.197Z,34.00
2018-09-12T13:45:16.779Z,34.10
2018-09-12T13:47:46.851Z,34.20
2018-09-12T13:50:17.901Z,34.20
2018-09-12T13:52:48.616Z,34.20
2018-09-12T13:55:18.739Z,34.20
2018-09-12T13:57:49.499Z,34.10
2018-09-12T14:00:20.327Z,33.90
2018-09-12T14:02:50.426Z,33.70
2018-09-12T14:05:21.215Z,33.50
2018-09-12T14:07:51.336Z,33.10
2018-09-12T14:10:22.072Z,32.90
2018-09-12T14:12:51.848Z,32.80
2018-09-12T14:15:21.542Z,32.60
2018-09-12T14:17:51.723Z,32.40
2018-09-12T14:20:22.810Z,32.20
2018-09-12T14:22:53.393Z,32.00
2018-09-12T14:25:33.435Z,31.80
2018-09-12T14:28:10.068Z,31.60
2018-09-12T14:30:39.771Z,31.40
2018-09-12T14:33:10.780Z,31.30
2018-09-12T14:35:40.739Z,31.10
2018-09-12T14:38:11.101Z,31.00
2018-09-12T14:40:41.626Z,31.00
2018-09-12T14:43:11.710Z,30.90
2018-09-12T14:45:42.325Z,30.80
2018-09-12T14:48:12.137Z,30.80
2018-09-12T14:50:42.080Z,30.70
2018-09-12T14:53:11.643Z,30.60
2018-09-12T14:55:41.168Z,30.50
2018-09-12T14:58:10.804Z,30.50
2018-09-12T15:00:40.688Z,30.50
2018-09-12T15:03:10.243Z,30.50
2018-09-12T15:05:39.762Z,30.50
2018-09-12T15:08:09.274Z,30.50
2018-09-12T15:10:39.068Z,30.40
2018-09-12T15:13:08.591Z,30.30
2018-09-12T15:15:38.820Z,30.20
2018-09-12T15:18:08.619Z,30.10
2018-09-12T15:20:38.161Z,30.10
2018-09-12T15:23:08.077Z,30.10
2018-09-12T15:25:37.603Z,30.00
2018-09-12T15:28:07.236Z,30.00
2018-09-12T15:30:36.764Z,30.00
2018-09-12T15:33:06.831Z,29.90
2018-09-12T15:35:36.317Z,29.80
2018-09-12T15:38:06.064Z,29.70
2018-09-12T15:40:35.623Z,29.60
2018-09-12T15:43:05.819Z,29.60
2018-09-12T15:45:35.981Z,29.50
2018-09-12T15:48:05.796Z,29.50
2018-09-12T15:50:35.884Z,29.50
2018-09-12T15:53:05.522Z,29.40
2018-09-12T15:55:35.089Z,29.30
2018-09-12T15:58:04.951Z,29.20
2018-09-12T16:00:34.772Z,29.10
2018-09-12T16:03:04.404Z,29.00
2018-09-12T16:05:33.956Z,28.90
2018-09-12T16:08:03.763Z,28.80
2018-09-12T16:10:34.420Z,28.70
2018-09-12T16:13:05.000Z,28.70
2018-09-12T16:15:34.595Z,28.60
2018-09-12T16:18:04.452Z,28.60
2018-09-12T16:20:34.088Z,28.50
2018-09-12T16:23:03.686Z,28.50
2018-09-12T16:25:33.363Z,28.50
2018-09-12T16:28:03.796Z,28.50
2018-09-12T16:30:33.360Z,28.50
2018-09-12T16:33:02.995Z,28.50
2018-09-12T16:35:32.741Z,28.40
2018-09-12T16:38:02.287Z,28.40
2018-09-12T16:40:31.803Z,28.30
2018-09-12T16:43:01.340Z,28.30
2018-09-12T16:45:30.957Z,28.30
2018-09-12T16:48:02.902Z,28.20
2018-09-12T16:50:33.458Z,28.20
2018-09-12T16:53:06.378Z,28.20
2018-09-12T16:55:35.931Z,28.20
2018-09-12T16:58:05.688Z,28.20
2018-09-12T17:00:36.438Z,28.10
2018-09-12T17:03:11.368Z,28.10
2018-09-12T17:05:41.651Z,28.10
2018-09-12T17:08:11.769Z,28.00
2018-09-12T17:10:41.992Z,28.00
2018-09-12T17:13:11.566Z,27.90
2018-09-12T17:15:42.511Z,27.90
2018-09-12T17:18:12.471Z,27.80
2018-09-12T17:20:42.332Z,27.80
2018-09-12T17:23:13.278Z,27.70
2018-09-12T17:25:44.535Z,27.70
2018-09-12T17:28:14.840Z,27.70
2018-09-12T17:30:46.139Z,27.60
2018-09-12T17:33:15.713Z,27.60
2018-09-12T17:35:45.639Z,27.60
2018-09-12T17:38:15.774Z,27.50
2018-09-12T17:40:45.361Z,27.50
2018-09-12T17:43:15.451Z,27.40
2018-09-12T17:45:47.310Z,27.40
2018-09-12T17:48:19.946Z,27.30
2018-09-12T17:50:49.848Z,27.30
2018-09-12T17:53:22.191Z,27.20
2018-09-12T17:55:52.205Z,27.20
2018-09-12T17:58:25.737Z,27.10
2018-09-12T18:00:56.680Z,27.10
2018-09-12T18:03:26.527Z,27.10
2018-09-12T18:05:56.474Z,27.10
2018-09-12T18:08:26.884Z,27.10
2018-09-12T18:10:57.285Z,27.00
2018-09-12T18:13:26.815Z,27.00
2018-09-12T18:15:56.291Z,27.00
2018-09-12T18:18:25.828Z,27.00
2018-09-12T18:20:55.439Z,27.00
2018-09-12T18:23:25.328Z,26.90
2018-09-12T18:25:54.886Z,26.90
2018-09-12T18:28:25.022Z,26.90
2018-09-12T18:30:57.403Z,26.80
2018-09-12T18:33:26.957Z,26.70
2018-09-12T18:36:00.894Z,26.70
2018-09-12T18:38:32.766Z,26.70
2018-09-12T18:41:02.511Z,26.70
2018-09-12T18:43:33.425Z,26.60
2018-09-12T18:46:04.384Z,26.60
2018-09-12T18:48:36.759Z,26.50
2018-09-12T18:51:10.327Z,26.50
2018-09-12T18:53:41.689Z,26.50
2018-09-12T18:56:11.706Z,26.50
2018-09-12T18:58:41.780Z,26.50
2018-09-12T19:01:12.559Z,26.50
2018-09-12T19:03:43.686Z,26.50
2018-09-12T19:06:14.107Z,26.50
2018-09-12T19:08:43.587Z,26.50
2018-09-12T19:11:13.134Z,26.50
2018-09-12T19:13:42.672Z,26.40
2018-09-12T19:16:14.603Z,26.40
2018-09-12T19:18:47.950Z,26.30
2018-09-12T19:21:25.730Z,26.30
2018-09-12T19:24:00.990Z,26.30
2018-09-12T19:26:35.678Z,26.30
2018-09-12T19:29:12.961Z,26.30
2018-09-12T19:31:44.527Z,26.30
2018-09-12T19:34:16.844Z,26.30
2018-09-12T19:36:48.347Z,26.30
2018-09-12T19:39:25.422Z,26.30
2018-09-12T19:41:56.062Z,26.30
2018-09-12T19:44:26.357Z,26.30
2018-09-12T19:46:57.876Z,26.30
2018-09-12T19:49:27.984Z,26.30
2018-09-12T19:51:58.266Z,26.30
2018-09-12T19:54:28.898Z,26.30
2018-09-12T19:56:59.088Z,26.20
2018-09-12T19:59:29.267Z,26.20
2018-09-12T20:01:59.470Z,26.20
2018-09-12T20:04:35.578Z,26.20
2018-09-12T20:07:08.610Z,26.10
2018-09-12T20:09:39.647Z,26.10
2018-09-12T20:12:10.135Z,26.10
2018-09-12T20:14:39.783Z,26.10
2018-09-12T20:17:11.946Z,26.10
2018-09-12T20:19:41.510Z,26.10
2018-09-12T20:22:17.720Z,26.10
2018-09-12T20:24:47.235Z,26.10
2018-09-12T20:27:16.836Z,26.00
2018-09-12T20:29:47.131Z,26.00
2018-09-12T20:35:00.814Z,25.90
2018-09-12T20:37:30.343Z,25.90
2018-09-12T20:40:00.133Z,25.90
2018-09-12T20:42:29.740Z,25.90
2018-09-12T20:44:59.293Z,25.90
2018-09-12T20:47:29.983Z,25.90
2018-09-12T20:49:59.621Z,25.80
2018-09-12T20:52:29.330Z,25.80
2018-09-12T20:54:59.531Z,25.80
2018-09-12T20:57:29.239Z,25.80
2018-09-12T21:00:01.556Z,25.70
2018-09-12T21:02:43.999Z,25.70
2018-09-12T21:05:13.569Z,25.70
2018-09-12T21:07:43.140Z,25.70
2018-09-12T21:10:12.932Z,25.60
2018-09-12T21:12:42.500Z,25.60
2018-09-12T21:15:14.798Z,25.60
2018-09-12T21:17:44.336Z,25.70
2018-09-12T21:20:19.096Z,25.70
2018-09-12T21:22:50.673Z,25.70
2018-09-12T21:25:20.191Z,25.70
2018-09-12T21:27:50.123Z,25.70
2018-09-12T21:30:19.829Z,25.70
2018-09-12T21:32:50.033Z,25.70
2018-09-12T21:35:21.499Z,25.70
2018-09-12T21:37:51.868Z,25.70
2018-09-12T21:40:21.974Z,25.60
2018-09-12T21:42:56.295Z,25.60
2018-09-12T21:45:26.688Z,25.50
2018-09-12T21:47:57.634Z,25.50
2018-09-12T21:50:30.251Z,25.50
2018-09-12T21:53:00.798Z,25.50
2018-09-12T21:55:30.667Z,25.50
2018-09-12T21:58:04.172Z,25.50
2018-09-12T22:00:34.467Z,25.50
2018-09-12T22:03:09.432Z,25.50
2018-09-12T22:05:39.932Z,25.50
2018-09-12T22:08:10.757Z,25.50
2018-09-12T22:10:42.483Z,25.50
2018-09-12T22:13:13.014Z,25.50
2018-09-12T22:15:43.696Z,25.50
2018-09-12T22:18:13.815Z,25.50
2018-09-12T22:20:44.038Z,25.40
2018-09-12T22:23:14.166Z,25.30
2018-09-12T22:25:44.844Z,25.30
2018-09-12T22:28:14.907Z,25.30
2018-09-12T22:30:45.559Z,25.30
2018-09-12T22:33:15.811Z,25.20
2018-09-12T22:35:46.524Z,25.10
2018-09-12T22:38:16.718Z,25.10
2018-09-12T22:40:47.057Z,25.10
2018-09-12T22:43:17.540Z,25.10
2018-09-12T22:45:48.207Z,25.10
2018-09-12T22:48:18.483Z,25.10
2018-09-12T22:50:49.107Z,25.10
2018-09-12T22:53:18.611Z,25.20
2018-09-12T22:55:49.039Z,25.20
2018-09-12T22:58:18.780Z,25.10
2018-09-12T23:00:49.485Z,25.20
2018-09-12T23:03:20.522Z,25.20
2018-09-12T23:05:50.538Z,25.20
2018-09-12T23:08:20.723Z,25.10
